sensor_id;sensor_type;location;lat;lon;timestamp;P1;durP1;ratioP1;P2;durP2;ratioP2
44486;SDS011;30191;50.908;6.962;2022-07-23T00:02:05;22.55;;;15.93;;
44486;SDS011;30191;50.908;6.962;2022-07-23T00:04:32;18.50;;;15.27;;
44486;SDS011;30191;50.908;6.962;2022-07-23T00:06:58;21.38;;;15.70;;
44486;SDS011;30191;50.908;6.962;2022-07-23T00:09:23;23.63;;;15.90;;
44486;SDS011;30191;50.908;6.962;2022-07-23T00:11:49;21.27;;;15.63;;
44486;SDS011;30191;50.908;6.962;2022-07-23T00:14:15;23.38;;;16.63;;
44486;SDS011;30191;50.908;6.962;2022-07-23T00:16:40;19.20;;;15.57;;
44486;SDS011;30191;50.908;6.962;2022-07-23T00:19:06;19.23;;;14.38;;
44486;SDS011;30191;50.908;6.962;2022-07-23T00:21:32;17.92;;;13.75;;
44486;SDS011;30191;50.908;6.962;2022-07-23T00:23:57;16.63;;;12.75;;
44486;SDS011;30191;50.908;6.962;2022-07-23T00:26:23;20.85;;;13.30;;
44486;SDS011;30191;50.908;6.962;2022-07-23T00:28:49;16.27;;;12.85;;
44486;SDS011;30191;50.908;6.962;2022-07-23T00:31:14;16.52;;;12.77;;
44486;SDS011;30191;50.908;6.962;2022-07-23T00:33:40;16.42;;;13.38;;
44486;SDS011;30191;50.908;6.962;2022-07-23T00:36:06;21.88;;;15.50;;
44486;SDS011;30191;50.908;6.962;2022-07-23T00:38:32;19.10;;;15.95;;
44486;SDS011;30191;50.908;6.962;2022-07-23T00:40:58;24.05;;;16.35;;
44486;SDS011;30191;50.908;6.962;2022-07-23T00:43:23;23.67;;;15.85;;
44486;SDS011;30191;50.908;6.962;2022-07-23T00:45:50;21.20;;;14.60;;
44486;SDS011;30191;50.908;6.962;2022-07-23T00:48:16;20.52;;;15.13;;
44486;SDS011;30191;50.908;6.962;2022-07-23T00:50:42;16.48;;;13.27;;
44486;SDS011;30191;50.908;6.962;2022-07-23T00:53:08;19.88;;;13.27;;
44486;SDS011;30191;50.908;6.962;2022-07-23T00:55:34;13.75;;;11.00;;
44486;SDS011;30191;50.908;6.962;2022-07-23T00:58:00;13.00;;;10.20;;
44486;SDS011;30191;50.908;6.962;2022-07-23T01:00:27;12.48;;;10.05;;
44486;SDS011;30191;50.908;6.962;2022-07-23T01:02:53;12.82;;;9.65;;
44486;SDS011;30191;50.908;6.962;2022-07-23T01:05:19;13.00;;;9.23;;
44486;SDS011;30191;50.908;6.962;2022-07-23T01:07:47;12.18;;;9.65;;
44486;SDS011;30191;50.908;6.962;2022-07-23T01:10:16;11.93;;;8.70;;
44486;SDS011;30191;50.908;6.962;2022-07-23T01:15:28;12.55;;;9.13;;
44486;SDS011;30191;50.908;6.962;2022-07-23T01:17:54;13.25;;;9.30;;
44486;SDS011;30191;50.908;6.962;2022-07-23T01:20:22;13.38;;;9.57;;
44486;SDS011;30191;50.908;6.962;2022-07-23T01:22:47;13.70;;;10.02;;
44486;SDS011;30191;50.908;6.962;2022-07-23T01:25:13;14.48;;;10.45;;
44486;SDS011;30191;50.908;6.962;2022-07-23T01:27:39;12.63;;;9.68;;
44486;SDS011;30191;50.908;6.962;2022-07-23T01:30:05;14.73;;;9.88;;
44486;SDS011;30191;50.908;6.962;2022-07-23T01:32:32;12.70;;;9.73;;
44486;SDS011;30191;50.908;6.962;2022-07-23T01:34:58;11.85;;;9.68;;
44486;SDS011;30191;50.908;6.962;2022-07-23T01:37:24;14.25;;;10.20;;
44486;SDS011;30191;50.908;6.962;2022-07-23T01:39:49;15.73;;;10.43;;
44486;SDS011;30191;50.908;6.962;2022-07-23T01:42:15;14.27;;;9.93;;
44486;SDS011;30191;50.908;6.962;2022-07-23T01:44:41;15.80;;;10.55;;
44486;SDS011;30191;50.908;6.962;2022-07-23T01:47:06;13.73;;;10.45;;
44486;SDS011;30191;50.908;6.962;2022-07-23T01:49:32;16.40;;;11.65;;
44486;SDS011;30191;50.908;6.962;2022-07-23T01:51:58;17.77;;;11.30;;
44486;SDS011;30191;50.908;6.962;2022-07-23T01:54:30;14.48;;;11.75;;
44486;SDS011;30191;50.908;6.962;2022-07-23T01:56:58;15.75;;;11.75;;
44486;SDS011;30191;50.908;6.962;2022-07-23T01:59:25;16.55;;;12.43;;
44486;SDS011;30191;50.908;6.962;2022-07-23T02:01:51;18.20;;;12.70;;
44486;SDS011;30191;50.908;6.962;2022-07-23T02:04:18;15.90;;;12.35;;
44486;SDS011;30191;50.908;6.962;2022-07-23T02:06:45;17.17;;;12.63;;
44486;SDS011;30191;50.908;6.962;2022-07-23T02:09:11;15.75;;;12.98;;
44486;SDS011;30191;50.908;6.962;2022-07-23T02:11:37;18.95;;;12.85;;
44486;SDS011;30191;50.908;6.962;2022-07-23T02:14:02;17.63;;;12.70;;
44486;SDS011;30191;50.908;6.962;2022-07-23T02:16:28;15.50;;;12.38;;
44486;SDS011;30191;50.908;6.962;2022-07-23T02:18:54;16.08;;;11.40;;
44486;SDS011;30191;50.908;6.962;2022-07-23T02:21:20;13.23;;;10.38;;
44486;SDS011;30191;50.908;6.962;2022-07-23T02:23:46;12.25;;;10.13;;
44486;SDS011;30191;50.908;6.962;2022-07-23T02:26:11;12.60;;;10.88;;
44486;SDS011;30191;50.908;6.962;2022-07-23T02:28:37;14.27;;;11.30;;
44486;SDS011;30191;50.908;6.962;2022-07-23T02:31:03;16.58;;;11.75;;
44486;SDS011;30191;50.908;6.962;2022-07-23T02:33:29;15.13;;;11.18;;
44486;SDS011;30191;50.908;6.962;2022-07-23T02:35:55;16.88;;;12.20;;
44486;SDS011;30191;50.908;6.962;2022-07-23T02:38:20;15.40;;;12.35;;
44486;SDS011;30191;50.908;6.962;2022-07-23T02:40:46;16.50;;;12.73;;
44486;SDS011;30191;50.908;6.962;2022-07-23T02:43:12;16.35;;;12.30;;
44486;SDS011;30191;50.908;6.962;2022-07-23T02:45:37;14.02;;;12.38;;
44486;SDS011;30191;50.908;6.962;2022-07-23T02:48:03;18.70;;;13.57;;
44486;SDS011;30191;50.908;6.962;2022-07-23T02:50:29;18.65;;;14.30;;
44486;SDS011;30191;50.908;6.962;2022-07-23T02:52:55;20.10;;;14.82;;
44486;SDS011;30191;50.908;6.962;2022-07-23T02:55:20;18.92;;;14.55;;
44486;SDS011;30191;50.908;6.962;2022-07-23T02:57:46;19.13;;;14.93;;
44486;SDS011;30191;50.908;6.962;2022-07-23T03:00:12;16.73;;;14.63;;
44486;SDS011;30191;50.908;6.962;2022-07-23T03:02:38;19.38;;;14.93;;
44486;SDS011;30191;50.908;6.962;2022-07-23T03:05:04;18.85;;;15.07;;
44486;SDS011;30191;50.908;6.962;2022-07-23T03:07:30;20.15;;;14.93;;
44486;SDS011;30191;50.908;6.962;2022-07-23T03:09:56;18.42;;;14.75;;
44486;SDS011;30191;50.908;6.962;2022-07-23T03:12:21;17.95;;;14.65;;
44486;SDS011;30191;50.908;6.962;2022-07-23T03:14:47;16.58;;;13.60;;
44486;SDS011;30191;50.908;6.962;2022-07-23T03:17:13;18.48;;;14.07;;
44486;SDS011;30191;50.908;6.962;2022-07-23T03:19:38;15.65;;;13.40;;
44486;SDS011;30191;50.908;6.962;2022-07-23T03:22:04;19.10;;;13.35;;
44486;SDS011;30191;50.908;6.962;2022-07-23T03:24:30;17.45;;;14.02;;
44486;SDS011;30191;50.908;6.962;2022-07-23T03:27:15;19.70;;;14.95;;
44486;SDS011;30191;50.908;6.962;2022-07-23T03:29:40;18.70;;;15.27;;
44486;SDS011;30191;50.908;6.962;2022-07-23T03:32:06;19.77;;;16.02;;
44486;SDS011;30191;50.908;6.962;2022-07-23T03:34:32;18.92;;;15.07;;
44486;SDS011;30191;50.908;6.962;2022-07-23T03:36:58;21.00;;;17.08;;
44486;SDS011;30191;50.908;6.962;2022-07-23T03:39:24;22.05;;;17.73;;
44486;SDS011;30191;50.908;6.962;2022-07-23T03:41:49;21.75;;;17.65;;
44486;SDS011;30191;50.908;6.962;2022-07-23T03:44:15;23.15;;;18.83;;
44486;SDS011;30191;50.908;6.962;2022-07-23T03:46:41;23.60;;;17.45;;
44486;SDS011;30191;50.908;6.962;2022-07-23T03:49:06;24.10;;;19.08;;
44486;SDS011;30191;50.908;6.962;2022-07-23T03:51:32;22.63;;;18.23;;
44486;SDS011;30191;50.908;6.962;2022-07-23T03:53:58;23.00;;;17.58;;
44486;SDS011;30191;50.908;6.962;2022-07-23T03:56:23;24.00;;;18.45;;
44486;SDS011;30191;50.908;6.962;2022-07-23T03:58:49;24.65;;;19.15;;
44486;SDS011;30191;50.908;6.962;2022-07-23T04:01:15;25.63;;;18.92;;
44486;SDS011;30191;50.908;6.962;2022-07-23T04:03:40;23.05;;;18.50;;
44486;SDS011;30191;50.908;6.962;2022-07-23T04:06:06;24.77;;;18.33;;
44486;SDS011;30191;50.908;6.962;2022-07-23T04:08:32;25.05;;;18.10;;
44486;SDS011;30191;50.908;6.962;2022-07-23T04:10:58;26.15;;;18.83;;
44486;SDS011;30191;50.908;6.962;2022-07-23T04:13:24;27.52;;;18.38;;
44486;SDS011;30191;50.908;6.962;2022-07-23T04:15:49;25.35;;;18.58;;
44486;SDS011;30191;50.908;6.962;2022-07-23T04:18:16;27.38;;;18.60;;
44486;SDS011;30191;50.908;6.962;2022-07-23T04:20:42;25.75;;;18.85;;
44486;SDS011;30191;50.908;6.962;2022-07-23T04:23:09;27.35;;;18.63;;
44486;SDS011;30191;50.908;6.962;2022-07-23T04:25:34;24.77;;;19.05;;
44486;SDS011;30191;50.908;6.962;2022-07-23T04:28:01;25.08;;;18.85;;
44486;SDS011;30191;50.908;6.962;2022-07-23T04:30:27;26.00;;;19.40;;
44486;SDS011;30191;50.908;6.962;2022-07-23T04:32:53;28.65;;;20.10;;
44486;SDS011;30191;50.908;6.962;2022-07-23T04:35:18;24.95;;;19.95;;
44486;SDS011;30191;50.908;6.962;2022-07-23T04:37:45;28.42;;;20.30;;
44486;SDS011;30191;50.908;6.962;2022-07-23T04:40:11;26.52;;;20.17;;
44486;SDS011;30191;50.908;6.962;2022-07-23T04:42:37;27.88;;;20.38;;
44486;SDS011;30191;50.908;6.962;2022-07-23T04:45:03;28.45;;;20.00;;
44486;SDS011;30191;50.908;6.962;2022-07-23T04:47:30;24.63;;;20.17;;
44486;SDS011;30191;50.908;6.962;2022-07-23T04:49:56;26.10;;;20.27;;
44486;SDS011;30191;50.908;6.962;2022-07-23T04:52:22;28.80;;;19.83;;
44486;SDS011;30191;50.908;6.962;2022-07-23T04:54:48;26.92;;;20.38;;
44486;SDS011;30191;50.908;6.962;2022-07-23T04:57:13;25.60;;;19.88;;
44486;SDS011;30191;50.908;6.962;2022-07-23T04:59:39;25.08;;;20.02;;
44486;SDS011;30191;50.908;6.962;2022-07-23T05:02:05;25.92;;;19.58;;
44486;SDS011;30191;50.908;6.962;2022-07-23T05:04:30;28.13;;;20.45;;
44486;SDS011;30191;50.908;6.962;2022-07-23T05:06:57;25.45;;;20.15;;
44486;SDS011;30191;50.908;6.962;2022-07-23T05:09:23;26.42;;;20.77;;
44486;SDS011;30191;50.908;6.962;2022-07-23T05:11:49;26.27;;;19.98;;
44486;SDS011;30191;50.908;6.962;2022-07-23T05:14:15;28.55;;;20.75;;
44486;SDS011;30191;50.908;6.962;2022-07-23T05:16:40;24.83;;;20.00;;
44486;SDS011;30191;50.908;6.962;2022-07-23T05:19:06;27.70;;;20.88;;
44486;SDS011;30191;50.908;6.962;2022-07-23T05:21:32;28.98;;;21.00;;
44486;SDS011;30191;50.908;6.962;2022-07-23T05:23:58;28.70;;;20.80;;
44486;SDS011;30191;50.908;6.962;2022-07-23T05:26:24;29.48;;;21.40;;
44486;SDS011;30191;50.908;6.962;2022-07-23T05:28:50;28.60;;;21.88;;
44486;SDS011;30191;50.908;6.962;2022-07-23T05:31:16;32.05;;;22.45;;
44486;SDS011;30191;50.908;6.962;2022-07-23T05:33:42;34.30;;;21.75;;
44486;SDS011;30191;50.908;6.962;2022-07-23T05:36:07;32.97;;;23.85;;
44486;SDS011;30191;50.908;6.962;2022-07-23T05:38:33;30.05;;;22.30;;
44486;SDS011;30191;50.908;6.962;2022-07-23T05:40:59;34.58;;;22.40;;
44486;SDS011;30191;50.908;6.962;2022-07-23T05:43:25;29.77;;;21.85;;
44486;SDS011;30191;50.908;6.962;2022-07-23T05:45:51;28.95;;;21.58;;
44486;SDS011;30191;50.908;6.962;2022-07-23T05:48:17;28.73;;;21.58;;
44486;SDS011;30191;50.908;6.962;2022-07-23T05:50:42;32.83;;;22.58;;
44486;SDS011;30191;50.908;6.962;2022-07-23T05:53:08;32.10;;;22.17;;
44486;SDS011;30191;50.908;6.962;2022-07-23T05:55:34;30.65;;;21.05;;
44486;SDS011;30191;50.908;6.962;2022-07-23T05:57:59;34.10;;;22.23;;
44486;SDS011;30191;50.908;6.962;2022-07-23T06:00:26;27.13;;;21.35;;
44486;SDS011;30191;50.908;6.962;2022-07-23T06:02:52;26.63;;;19.95;;
44486;SDS011;30191;50.908;6.962;2022-07-23T06:05:18;28.02;;;20.27;;
44486;SDS011;30191;50.908;6.962;2022-07-23T06:07:44;31.13;;;19.42;;
44486;SDS011;30191;50.908;6.962;2022-07-23T06:10:10;30.92;;;21.08;;
44486;SDS011;30191;50.908;6.962;2022-07-23T06:12:36;26.35;;;18.95;;
44486;SDS011;30191;50.908;6.962;2022-07-23T06:15:02;28.48;;;18.88;;
44486;SDS011;30191;50.908;6.962;2022-07-23T06:17:28;27.90;;;19.63;;
44486;SDS011;30191;50.908;6.962;2022-07-23T06:19:54;25.02;;;19.95;;
44486;SDS011;30191;50.908;6.962;2022-07-23T06:22:21;26.92;;;18.60;;
44486;SDS011;30191;50.908;6.962;2022-07-23T06:24:47;27.13;;;19.45;;
44486;SDS011;30191;50.908;6.962;2022-07-23T06:27:13;30.42;;;19.60;;
44486;SDS011;30191;50.908;6.962;2022-07-23T06:29:39;29.27;;;18.92;;
44486;SDS011;30191;50.908;6.962;2022-07-23T06:32:05;29.58;;;19.52;;
44486;SDS011;30191;50.908;6.962;2022-07-23T06:34:32;26.98;;;18.58;;
44486;SDS011;30191;50.908;6.962;2022-07-23T06:36:57;26.05;;;19.08;;
44486;SDS011;30191;50.908;6.962;2022-07-23T06:39:23;27.60;;;19.58;;
44486;SDS011;30191;50.908;6.962;2022-07-23T06:41:50;28.13;;;20.13;;
44486;SDS011;30191;50.908;6.962;2022-07-23T06:44:16;25.15;;;19.25;;
44486;SDS011;30191;50.908;6.962;2022-07-23T06:46:42;29.40;;;19.92;;
44486;SDS011;30191;50.908;6.962;2022-07-23T06:49:08;29.17;;;18.92;;
44486;SDS011;30191;50.908;6.962;2022-07-23T06:51:34;27.30;;;19.20;;
44486;SDS011;30191;50.908;6.962;2022-07-23T06:54:00;23.52;;;18.52;;
44486;SDS011;30191;50.908;6.962;2022-07-23T06:56:26;28.60;;;19.05;;
44486;SDS011;30191;50.908;6.962;2022-07-23T06:58:51;22.65;;;17.90;;
44486;SDS011;30191;50.908;6.962;2022-07-23T07:01:17;25.10;;;17.73;;
44486;SDS011;30191;50.908;6.962;2022-07-23T07:03:43;28.48;;;17.85;;
44486;SDS011;30191;50.908;6.962;2022-07-23T07:06:09;23.85;;;17.80;;
44486;SDS011;30191;50.908;6.962;2022-07-23T07:08:35;23.25;;;16.50;;
44486;SDS011;30191;50.908;6.962;2022-07-23T07:11:04;23.67;;;16.83;;
44486;SDS011;30191;50.908;6.962;2022-07-23T07:13:30;25.13;;;17.70;;
44486;SDS011;30191;50.908;6.962;2022-07-23T07:15:55;24.05;;;16.45;;
44486;SDS011;30191;50.908;6.962;2022-07-23T07:18:21;20.40;;;14.68;;
44486;SDS011;30191;50.908;6.962;2022-07-23T07:20:47;20.38;;;13.95;;
44486;SDS011;30191;50.908;6.962;2022-07-23T07:23:14;18.67;;;14.07;;
44486;SDS011;30191;50.908;6.962;2022-07-23T07:25:39;20.55;;;14.40;;
44486;SDS011;30191;50.908;6.962;2022-07-23T07:28:05;21.80;;;14.77;;
44486;SDS011;30191;50.908;6.962;2022-07-23T07:30:31;22.48;;;15.05;;
44486;SDS011;30191;50.908;6.962;2022-07-23T07:32:57;20.65;;;14.77;;
44486;SDS011;30191;50.908;6.962;2022-07-23T07:35:23;17.13;;;14.45;;
44486;SDS011;30191;50.908;6.962;2022-07-23T07:37:49;23.55;;;15.70;;
44486;SDS011;30191;50.908;6.962;2022-07-23T07:40:15;17.55;;;12.32;;
44486;SDS011;30191;50.908;6.962;2022-07-23T07:42:50;18.17;;;13.45;;
44486;SDS011;30191;50.908;6.962;2022-07-23T07:45:19;16.60;;;12.60;;
44486;SDS011;30191;50.908;6.962;2022-07-23T07:47:45;21.90;;;15.23;;
44486;SDS011;30191;50.908;6.962;2022-07-23T07:50:11;17.15;;;14.15;;
44486;SDS011;30191;50.908;6.962;2022-07-23T07:52:37;20.05;;;15.43;;
44486;SDS011;30191;50.908;6.962;2022-07-23T07:55:03;22.38;;;16.58;;
44486;SDS011;30191;50.908;6.962;2022-07-23T07:57:31;21.52;;;16.20;;
44486;SDS011;30191;50.908;6.962;2022-07-23T07:59:56;22.17;;;15.60;;
44486;SDS011;30191;50.908;6.962;2022-07-23T08:02:22;18.00;;;13.75;;
44486;SDS011;30191;50.908;6.962;2022-07-23T08:04:48;19.48;;;13.55;;
44486;SDS011;30191;50.908;6.962;2022-07-23T08:07:14;17.77;;;12.02;;
44486;SDS011;30191;50.908;6.962;2022-07-23T08:09:40;18.52;;;12.93;;
44486;SDS011;30191;50.908;6.962;2022-07-23T08:12:06;21.17;;;13.07;;
44486;SDS011;30191;50.908;6.962;2022-07-23T08:14:32;19.42;;;13.55;;
44486;SDS011;30191;50.908;6.962;2022-07-23T08:16:58;18.27;;;12.38;;
44486;SDS011;30191;50.908;6.962;2022-07-23T08:19:23;15.35;;;11.00;;
44486;SDS011;30191;50.908;6.962;2022-07-23T08:21:49;22.40;;;14.27;;
44486;SDS011;30191;50.908;6.962;2022-07-23T08:24:15;18.33;;;13.07;;
44486;SDS011;30191;50.908;6.962;2022-07-23T08:26:40;15.40;;;12.15;;
44486;SDS011;30191;50.908;6.962;2022-07-23T08:29:06;19.23;;;13.27;;
44486;SDS011;30191;50.908;6.962;2022-07-23T08:31:32;17.88;;;12.50;;
44486;SDS011;30191;50.908;6.962;2022-07-23T08:33:59;15.63;;;13.05;;
44486;SDS011;30191;50.908;6.962;2022-07-23T08:36:25;16.02;;;12.52;;
44486;SDS011;30191;50.908;6.962;2022-07-23T08:38:52;16.08;;;12.40;;
44486;SDS011;30191;50.908;6.962;2022-07-23T08:41:19;14.40;;;11.90;;
44486;SDS011;30191;50.908;6.962;2022-07-23T08:43:45;16.58;;;13.15;;
44486;SDS011;30191;50.908;6.962;2022-07-23T08:46:12;15.55;;;11.60;;
44486;SDS011;30191;50.908;6.962;2022-07-23T08:48:39;20.05;;;13.05;;
44486;SDS011;30191;50.908;6.962;2022-07-23T08:51:05;16.30;;;12.07;;
44486;SDS011;30191;50.908;6.962;2022-07-23T08:53:31;15.13;;;11.98;;
44486;SDS011;30191;50.908;6.962;2022-07-23T08:56:00;15.63;;;12.35;;
44486;SDS011;30191;50.908;6.962;2022-07-23T08:58:27;15.65;;;12.75;;
44486;SDS011;30191;50.908;6.962;2022-07-23T09:00:54;16.58;;;10.98;;
44486;SDS011;30191;50.908;6.962;2022-07-23T09:03:26;18.38;;;13.52;;
44486;SDS011;30191;50.908;6.962;2022-07-23T09:05:56;14.68;;;11.85;;
44486;SDS011;30191;50.908;6.962;2022-07-23T09:08:44;15.10;;;11.48;;
44486;SDS011;30191;50.908;6.962;2022-07-23T09:11:12;20.70;;;12.07;;
44486;SDS011;30191;50.908;6.962;2022-07-23T09:13:42;15.50;;;12.23;;
44486;SDS011;30191;50.908;6.962;2022-07-23T09:16:19;17.48;;;13.25;;
44486;SDS011;30191;50.908;6.962;2022-07-23T09:21:25;13.48;;;10.70;;
44486;SDS011;30191;50.908;6.962;2022-07-23T09:23:59;13.02;;;10.82;;
44486;SDS011;30191;50.908;6.962;2022-07-23T09:36:49;17.13;;;11.98;;
44486;SDS011;30191;50.908;6.962;2022-07-23T09:39:24;15.95;;;11.23;;
44486;SDS011;30191;50.908;6.962;2022-07-23T09:41:57;18.30;;;10.93;;
44486;SDS011;30191;50.908;6.962;2022-07-23T09:44:40;14.68;;;13.18;;
44486;SDS011;30191;50.908;6.962;2022-07-23T09:47:07;16.15;;;12.13;;
44486;SDS011;30191;50.908;6.962;2022-07-23T09:49:32;14.55;;;12.20;;
44486;SDS011;30191;50.908;6.962;2022-07-23T09:51:59;14.25;;;11.60;;
44486;SDS011;30191;50.908;6.962;2022-07-23T09:54:28;16.00;;;10.52;;
44486;SDS011;30191;50.908;6.962;2022-07-23T09:57:09;13.13;;;10.95;;
44486;SDS011;30191;50.908;6.962;2022-07-23T09:59:41;15.10;;;12.80;;
44486;SDS011;30191;50.908;6.962;2022-07-23T10:02:09;15.85;;;11.77;;
44486;SDS011;30191;50.908;6.962;2022-07-23T10:04:37;19.38;;;13.57;;
44486;SDS011;30191;50.908;6.962;2022-07-23T10:07:03;18.38;;;13.23;;
44486;SDS011;30191;50.908;6.962;2022-07-23T10:09:31;16.95;;;13.18;;
44486;SDS011;30191;50.908;6.962;2022-07-23T10:12:00;19.15;;;13.85;;
44486;SDS011;30191;50.908;6.962;2022-07-23T10:14:32;18.70;;;13.02;;
44486;SDS011;30191;50.908;6.962;2022-07-23T10:17:00;16.58;;;14.50;;
44486;SDS011;30191;50.908;6.962;2022-07-23T10:19:28;17.27;;;14.60;;
44486;SDS011;30191;50.908;6.962;2022-07-23T10:21:58;19.15;;;14.50;;
44486;SDS011;30191;50.908;6.962;2022-07-23T10:27:31;15.15;;;12.23;;
44486;SDS011;30191;50.908;6.962;2022-07-23T10:35:36;16.90;;;11.77;;
44486;SDS011;30191;50.908;6.962;2022-07-23T10:38:13;14.65;;;10.38;;
44486;SDS011;30191;50.908;6.962;2022-07-23T10:40:58;11.50;;;10.30;;
44486;SDS011;30191;50.908;6.962;2022-07-23T10:43:25;14.55;;;10.85;;
44486;SDS011;30191;50.908;6.962;2022-07-23T10:45:52;14.02;;;11.25;;
44486;SDS011;30191;50.908;6.962;2022-07-23T10:48:22;17.42;;;11.52;;
44486;SDS011;30191;50.908;6.962;2022-07-23T10:56:13;10.35;;;9.05;;
44486;SDS011;30191;50.908;6.962;2022-07-23T10:58:46;19.65;;;8.48;;
44486;SDS011;30191;50.908;6.962;2022-07-23T11:04:02;9.63;;;7.82;;
44486;SDS011;30191;50.908;6.962;2022-07-23T11:18:18;11.05;;;6.32;;
44486;SDS011;30191;50.908;6.962;2022-07-23T11:20:20;7.90;;;5.57;;
44486;SDS011;30191;50.908;6.962;2022-07-23T11:22:49;8.93;;;5.82;;
44486;SDS011;30191;50.908;6.962;2022-07-23T11:27:53;9.52;;;6.82;;
44486;SDS011;30191;50.908;6.962;2022-07-23T11:32:54;7.53;;;6.55;;
44486;SDS011;30191;50.908;6.962;2022-07-23T11:35:41;7.53;;;6.50;;
44486;SDS011;30191;50.908;6.962;2022-07-23T11:38:21;9.60;;;6.78;;
44486;SDS011;30191;50.908;6.962;2022-07-23T11:40:49;8.90;;;5.80;;
44486;SDS011;30191;50.908;6.962;2022-07-23T11:43:21;7.72;;;5.65;;
44486;SDS011;30191;50.908;6.962;2022-07-23T11:45:48;7.15;;;5.18;;
44486;SDS011;30191;50.908;6.962;2022-07-23T11:48:19;10.13;;;7.03;;
44486;SDS011;30191;50.908;6.962;2022-07-23T11:50:46;6.38;;;5.78;;
44486;SDS011;30191;50.908;6.962;2022-07-23T11:53:16;9.02;;;6.50;;
44486;SDS011;30191;50.908;6.962;2022-07-23T11:56:02;6.70;;;5.63;;
44486;SDS011;30191;50.908;6.962;2022-07-23T11:58:32;7.45;;;6.20;;
44486;SDS011;30191;50.908;6.962;2022-07-23T12:00:58;5.93;;;4.70;;
44486;SDS011;30191;50.908;6.962;2022-07-23T12:03:24;7.68;;;4.88;;
44486;SDS011;30191;50.908;6.962;2022-07-23T12:05:55;7.32;;;4.85;;
44486;SDS011;30191;50.908;6.962;2022-07-23T12:08:22;6.57;;;4.78;;
44486;SDS011;30191;50.908;6.962;2022-07-23T12:10:48;7.15;;;4.90;;
44486;SDS011;30191;50.908;6.962;2022-07-23T12:13:15;5.03;;;4.40;;
44486;SDS011;30191;50.908;6.962;2022-07-23T12:15:50;5.10;;;4.50;;
44486;SDS011;30191;50.908;6.962;2022-07-23T12:18:18;5.00;;;4.53;;
44486;SDS011;30191;50.908;6.962;2022-07-23T12:20:47;6.22;;;4.00;;
44486;SDS011;30191;50.908;6.962;2022-07-23T12:23:17;5.47;;;4.85;;
44486;SDS011;30191;50.908;6.962;2022-07-23T12:25:44;6.15;;;4.40;;
44486;SDS011;30191;50.908;6.962;2022-07-23T12:28:33;5.68;;;4.53;;
44486;SDS011;30191;50.908;6.962;2022-07-23T12:31:00;6.55;;;4.63;;
44486;SDS011;30191;50.908;6.962;2022-07-23T12:33:30;5.82;;;4.68;;
44486;SDS011;30191;50.908;6.962;2022-07-23T12:36:02;4.70;;;3.38;;
44486;SDS011;30191;50.908;6.962;2022-07-23T12:38:36;4.03;;;3.63;;
44486;SDS011;30191;50.908;6.962;2022-07-23T12:41:06;4.80;;;4.18;;
44486;SDS011;30191;50.908;6.962;2022-07-23T12:43:35;5.22;;;4.25;;
44486;SDS011;30191;50.908;6.962;2022-07-23T12:46:05;5.75;;;3.95;;
44486;SDS011;30191;50.908;6.962;2022-07-23T12:48:34;4.38;;;3.65;;
44486;SDS011;30191;50.908;6.962;2022-07-23T12:51:05;6.07;;;4.10;;
44486;SDS011;30191;50.908;6.962;2022-07-23T12:53:36;5.47;;;3.45;;
44486;SDS011;30191;50.908;6.962;2022-07-23T12:58:40;5.40;;;3.65;;
44486;SDS011;30191;50.908;6.962;2022-07-23T13:01:06;3.70;;;2.90;;
44486;SDS011;30191;50.908;6.962;2022-07-23T13:03:41;4.63;;;3.40;;
44486;SDS011;30191;50.908;6.962;2022-07-23T13:06:10;4.55;;;3.30;;
44486;SDS011;30191;50.908;6.962;2022-07-23T13:08:37;4.05;;;3.22;;
44486;SDS011;30191;50.908;6.962;2022-07-23T13:11:04;4.18;;;3.25;;
44486;SDS011;30191;50.908;6.962;2022-07-23T13:13:31;5.57;;;3.38;;
44486;SDS011;30191;50.908;6.962;2022-07-23T13:15:59;4.05;;;3.63;;
44486;SDS011;30191;50.908;6.962;2022-07-23T13:18:26;5.45;;;3.33;;
44486;SDS011;30191;50.908;6.962;2022-07-23T13:20:52;3.85;;;3.47;;
44486;SDS011;30191;50.908;6.962;2022-07-23T13:23:18;5.20;;;3.58;;
44486;SDS011;30191;50.908;6.962;2022-07-23T13:25:44;3.78;;;3.47;;
44486;SDS011;30191;50.908;6.962;2022-07-23T13:28:11;5.32;;;3.90;;
44486;SDS011;30191;50.908;6.962;2022-07-23T13:30:38;6.00;;;3.10;;
44486;SDS011;30191;50.908;6.962;2022-07-23T13:33:04;7.95;;;2.65;;
44486;SDS011;30191;50.908;6.962;2022-07-23T13:35:30;6.72;;;2.47;;
44486;SDS011;30191;50.908;6.962;2022-07-23T13:37:57;6.55;;;2.60;;
44486;SDS011;30191;50.908;6.962;2022-07-23T13:40:22;5.70;;;2.53;;
44486;SDS011;30191;50.908;6.962;2022-07-23T13:42:48;3.97;;;2.60;;
44486;SDS011;30191;50.908;6.962;2022-07-23T13:45:14;3.67;;;2.75;;
44486;SDS011;30191;50.908;6.962;2022-07-23T13:47:40;4.30;;;2.78;;
44486;SDS011;30191;50.908;6.962;2022-07-23T13:50:06;3.63;;;2.95;;
44486;SDS011;30191;50.908;6.962;2022-07-23T13:52:32;3.72;;;2.30;;
44486;SDS011;30191;50.908;6.962;2022-07-23T13:54:59;2.72;;;2.00;;
44486;SDS011;30191;50.908;6.962;2022-07-23T13:57:30;3.53;;;2.50;;
44486;SDS011;30191;50.908;6.962;2022-07-23T13:59:57;3.20;;;2.30;;
44486;SDS011;30191;50.908;6.962;2022-07-23T14:02:23;3.30;;;2.50;;
44486;SDS011;30191;50.908;6.962;2022-07-23T14:04:49;4.50;;;2.28;;
44486;SDS011;30191;50.908;6.962;2022-07-23T14:07:16;6.65;;;2.53;;
44486;SDS011;30191;50.908;6.962;2022-07-23T14:09:41;3.00;;;2.15;;
44486;SDS011;30191;50.908;6.962;2022-07-23T14:12:07;2.92;;;2.17;;
44486;SDS011;30191;50.908;6.962;2022-07-23T14:14:34;3.17;;;2.40;;
44486;SDS011;30191;50.908;6.962;2022-07-23T14:16:59;2.83;;;2.40;;
44486;SDS011;30191;50.908;6.962;2022-07-23T14:19:25;2.78;;;2.58;;
44486;SDS011;30191;50.908;6.962;2022-07-23T14:21:51;3.80;;;2.33;;
44486;SDS011;30191;50.908;6.962;2022-07-23T14:24:17;4.60;;;2.25;;
44486;SDS011;30191;50.908;6.962;2022-07-23T14:26:42;3.58;;;2.25;;
44486;SDS011;30191;50.908;6.962;2022-07-23T14:29:08;4.05;;;2.15;;
44486;SDS011;30191;50.908;6.962;2022-07-23T14:31:34;2.45;;;1.92;;
44486;SDS011;30191;50.908;6.962;2022-07-23T14:34:00;2.70;;;2.10;;
44486;SDS011;30191;50.908;6.962;2022-07-23T14:36:26;5.78;;;2.33;;
44486;SDS011;30191;50.908;6.962;2022-07-23T14:38:52;3.13;;;2.17;;
44486;SDS011;30191;50.908;6.962;2022-07-23T14:41:18;2.10;;;1.92;;
44486;SDS011;30191;50.908;6.962;2022-07-23T14:43:44;4.32;;;2.42;;
44486;SDS011;30191;50.908;6.962;2022-07-23T14:46:10;5.57;;;2.53;;
44486;SDS011;30191;50.908;6.962;2022-07-23T14:48:37;4.55;;;2.08;;
44486;SDS011;30191;50.908;6.962;2022-07-23T14:51:03;3.45;;;1.92;;
44486;SDS011;30191;50.908;6.962;2022-07-23T14:53:29;2.22;;;1.70;;
44486;SDS011;30191;50.908;6.962;2022-07-23T14:55:55;3.55;;;1.75;;
44486;SDS011;30191;50.908;6.962;2022-07-23T14:58:22;3.60;;;2.00;;
44486;SDS011;30191;50.908;6.962;2022-07-23T15:00:48;4.20;;;1.98;;
44486;SDS011;30191;50.908;6.962;2022-07-23T15:03:14;3.15;;;1.92;;
44486;SDS011;30191;50.908;6.962;2022-07-23T15:05:40;2.40;;;2.20;;
44486;SDS011;30191;50.908;6.962;2022-07-23T15:08:06;3.00;;;2.30;;
44486;SDS011;30191;50.908;6.962;2022-07-23T15:10:32;4.70;;;1.90;;
44486;SDS011;30191;50.908;6.962;2022-07-23T15:12:57;4.15;;;2.10;;
44486;SDS011;30191;50.908;6.962;2022-07-23T15:15:23;5.60;;;1.67;;
44486;SDS011;30191;50.908;6.962;2022-07-23T15:17:49;3.53;;;1.88;;
44486;SDS011;30191;50.908;6.962;2022-07-23T15:20:14;2.55;;;1.88;;